Time;durP1;ratioP1;P1;durP2;ratioP2;P2;SDS_P1;SDS_P2;PMS_P1;PMS_P2;Temp;Humidity;BMP_temperature;BMP_pressure;BME280_temperature;BME280_humidity;BME280_pressure;Samples;Min_cycle;Max_cycle;Signal;HPM_P1;HPM_P2
2023/07/12 00:01:37;;;;;;;3.20;2.70;;;;;;;24.81;64.87;98496.56;6999058;28;20209;-83
2023/07/12 00:05:00;;;;;;;4.03;2.87;;;;;;;24.74;64.86;98491.47;6997817;28;20252;-83
2023/07/12 00:08:24;;;;;;;3.30;3.00;;;;;;;24.57;65.75;98482.13;6998613;28;20712;-84
2023/07/12 00:11:45;;;;;;;2.97;2.53;;;;;;;24.88;64.67;98470.22;6998671;28;20266;-83
2023/07/12 00:15:08;;;;;;;2.80;2.50;;;;;;;24.47;65.00;98451.94;6998573;28;20297;-83
2023/07/12 00:18:31;;;;;;;3.30;2.90;;;;;;;24.38;65.93;98457.34;6998120;28;20265;-83
2023/07/12 00:21:53;;;;;;;5.17;2.97;;;;;;;25.05;64.21;98453.06;6998805;28;20259;-83
2023/07/12 00:25:18;;;;;;;3.40;2.93;;;;;;;24.85;63.07;98401.91;6999116;28;20254;-84
2023/07/12 00:28:39;;;;;;;2.70;2.50;;;;;;;25.31;62.13;98426.63;6996580;28;20221;-83
2023/07/12 00:32:01;;;;;;;3.60;2.63;;;;;;;24.40;62.48;98324.75;6998944;28;20278;-83
2023/07/12 00:35:25;;;;;;;3.27;2.40;;;;;;;25.00;62.34;98393.28;6999061;28;20205;-84
2023/07/12 00:38:48;;;;;;;3.37;2.60;;;;;;;25.27;61.34;98398.81;6998672;28;20937;-83
2023/07/12 00:42:17;;;;;;;3.03;2.63;;;;;;;24.91;62.65;98392.41;6999297;28;20245;-83
2023/07/12 00:45:39;;;;;;;2.60;2.40;;;;;;;24.14;64.24;98365.72;7000030;28;20206;-84
2023/07/12 00:49:00;;;;;;;2.03;1.93;;;;;;;25.02;61.92;98385.53;6999718;28;20326;-83
2023/07/12 00:52:25;;;;;;;2.90;2.50;;;;;;;24.98;61.64;98361.63;7000464;28;20214;-83
2023/07/12 00:56:00;;;;;;;3.57;2.43;;;;;;;25.32;61.10;98393.16;6999485;28;20213;-84
2023/07/12 00:59:24;;;;;;;2.47;2.27;;;;;;;26.07;59.32;98399.69;7000050;28;20284;-83
2023/07/12 01:02:47;;;;;;;3.73;2.83;;;;;;;25.71;60.11;98396.13;7000342;28;20209;-83
2023/07/12 01:06:10;;;;;;;2.90;2.63;;;;;;;25.48;61.22;98402.75;7000669;28;20336;-84
2023/07/12 01:09:33;;;;;;;2.90;2.60;;;;;;;25.52;60.04;98406.53;7001492;28;20270;-83
2023/07/12 01:12:55;;;;;;;2.80;2.50;;;;;;;25.39;61.31;98390.81;7003264;28;20705;-83
2023/07/12 01:16:20;;;;;;;2.77;2.50;;;;;;;25.53;60.45;98393.53;7000245;28;20199;-83
2023/07/12 01:19:41;;;;;;;3.37;2.53;;;;;;;25.65;59.77;98377.25;7000998;28;20733;-83
2023/07/12 01:23:04;;;;;;;4.00;2.40;;;;;;;25.74;59.33;98367.06;7000097;28;20265;-84
2023/07/12 01:26:31;;;;;;;2.33;2.13;;;;;;;25.84;58.92;98350.25;6999829;28;20363;-83
2023/07/12 01:29:53;;;;;;;2.97;2.40;;;;;;;25.86;59.10;98336.94;7000570;28;20272;-83
2023/07/12 01:33:14;;;;;;;5.03;2.20;;;;;;;25.35;59.71;98297.88;7000819;28;20300;-84
2023/07/12 01:36:37;;;;;;;3.77;2.40;;;;;;;25.28;60.26;98280.94;7004551;28;20250;-83
2023/07/12 01:39:59;;;;;;;3.07;2.27;;;;;;;25.37;59.70;98282.66;7007367;28;20312;-83
2023/07/12 01:43:21;;;;;;;3.07;2.40;;;;;;;25.63;59.01;98289.19;7006743;28;20239;-83
2023/07/12 01:46:42;;;;;;;2.97;2.40;;;;;;;25.92;58.10;98319.13;7006601;28;20610;-83
2023/07/12 01:50:05;;;;;;;2.50;2.27;;;;;;;26.01;58.97;98331.06;7004738;28;20375;-83
2023/07/12 01:53:26;;;;;;;6.83;3.20;;;;;;;26.05;59.13;98304.41;6994018;28;20293;-83
2023/07/12 01:56:49;;;;;;;4.80;2.63;;;;;;;25.70;60.51;98201.19;7006908;28;20234;-83
2023/07/12 02:00:12;;;;;;;3.87;2.97;;;;;;;25.20;61.92;98212.69;7007409;28;20310;-83
2023/07/12 02:03:33;;;;;;;4.70;3.00;;;;;;;24.70;64.42;98181.63;7008510;28;20273;-83
2023/07/12 02:06:55;;;;;;;3.03;2.53;;;;;;;24.75;64.73;98189.78;7005384;28;20348;-82
2023/07/12 02:10:18;;;;;;;4.33;3.00;;;;;;;24.85;63.44;98205.25;7004505;28;20206;-83
2023/07/12 02:13:41;;;;;;;5.07;2.40;;;;;;;25.34;62.04;98224.50;7001641;28;20204;-83
2023/07/12 02:17:03;;;;;;;5.27;2.57;;;;;;;24.39;64.41;98249.53;7001188;28;20202;-84
2023/07/12 02:20:25;;;;;;;3.43;2.63;;;;;;;23.92;65.02;98251.84;7001833;28;20796;-84
2023/07/12 02:23:46;;;;;;;3.33;2.47;;;;;;;24.15;63.83;98237.91;7001834;28;20216;-84
2023/07/12 02:27:07;;;;;;;4.07;2.67;;;;;;;24.97;62.39;98249.66;7001214;28;20229;-84
2023/07/12 02:30:31;;;;;;;4.93;2.47;;;;;;;24.75;62.21;98247.69;7001690;28;20288;-84
2023/07/12 02:33:52;;;;;;;3.93;2.73;;;;;;;24.69;61.46;98157.94;7001069;28;20205;-84
2023/07/12 02:37:14;;;;;;;4.23;2.93;;;;;;;24.99;61.00;98159.94;7000903;28;20651;-84
2023/07/12 02:40:35;;;;;;;5.40;3.07;;;;;;;25.91;60.01;98256.72;7001333;28;20206;-84
2023/07/12 02:43:57;;;;;;;4.63;3.10;;;;;;;26.05;58.18;98258.28;7001217;28;20202;-84
2023/07/12 02:47:20;;;;;;;3.33;2.57;;;;;;;25.80;59.83;98264.44;6999409;28;20290;-84
2023/07/12 02:50:41;;;;;;;3.43;2.97;;;;;;;25.88;59.07;98254.56;7000939;28;20762;-84
2023/07/12 02:54:02;;;;;;;3.20;2.90;;;;;;;25.65;60.72;98250.22;7000952;28;20210;-84
2023/07/12 02:57:24;;;;;;;3.87;3.13;;;;;;;25.38;62.02;98269.69;7000583;28;20289;-84
2023/07/12 03:00:46;;;;;;;4.10;3.27;;;;;;;25.36;61.58;98234.09;7000328;28;20246;-84
2023/07/12 03:04:09;;;;;;;3.80;3.37;;;;;;;25.28;60.70;98245.06;7000645;28;20238;-84
2023/07/12 03:07:30;;;;;;;3.77;3.10;;;;;;;25.43;61.80;98245.50;7000442;28;20286;-84
2023/07/12 03:10:52;;;;;;;3.97;3.57;;;;;;;25.17;62.36;98241.72;7000560;28;20331;-84
2023/07/12 03:14:15;;;;;;;5.87;3.23;;;;;;;25.38;62.19;98267.75;6998926;28;20296;-84
2023/07/12 03:17:37;;;;;;;6.80;3.00;;;;;;;25.53;61.17;98272.88;6999329;28;20711;-84
2023/07/12 03:21:01;;;;;;;4.83;3.23;;;;;;;25.39;61.12;98274.88;6999315;28;20261;-84
2023/07/12 03:24:23;;;;;;;6.40;3.50;;;;;;;25.29;60.72;98274.28;6999507;28;20546;-84
2023/07/12 03:27:47;;;;;;;6.83;3.43;;;;;;;25.30;61.34;98284.22;6999109;28;20236;-84
2023/07/12 03:31:11;;;;;;;4.20;3.30;;;;;;;25.17;61.48;98280.34;6999901;28;20221;-84
2023/07/12 03:34:33;;;;;;;4.50;3.30;;;;;;;25.20;61.76;98274.19;6999776;28;20614;-84
2023/07/12 03:37:55;;;;;;;5.40;3.57;;;;;;;25.17;62.06;98279.53;6999478;28;20348;-84
2023/07/12 03:41:17;;;;;;;4.40;3.10;;;;;;;24.61;61.40;98186.22;6999738;28;20244;-84
2023/07/12 03:44:39;;;;;;;6.17;3.60;;;;;;;24.86;62.28;98287.69;6999563;28;20819;-85
2023/07/12 03:48:00;;;;;;;5.43;3.70;;;;;;;25.05;61.90;98285.59;6999886;28;20259;-84
2023/07/12 03:51:22;;;;;;;6.93;3.87;;;;;;;24.50;63.54;98294.22;6999588;28;20209;-84
2023/07/12 03:54:45;;;;;;;7.20;3.27;;;;;;;24.72;63.15;98306.19;6999082;28;20194;-84
2023/07/12 03:58:07;;;;;;;4.33;3.07;;;;;;;24.88;62.76;98320.47;6998740;28;20252;-84
2023/07/12 04:01:29;;;;;;;6.83;3.80;;;;;;;24.75;62.43;98308.34;6999072;28;20342;-84
2023/07/12 04:04:50;;;;;;;4.30;3.33;;;;;;;24.79;63.21;98309.34;6999357;28;20206;-85
2023/07/12 04:08:13;;;;;;;3.93;3.33;;;;;;;25.15;61.57;98304.69;6998614;28;20318;-84
2023/07/12 04:11:38;;;;;;;4.33;2.90;;;;;;;25.20;60.77;98314.78;7001390;28;20256;-84
2023/07/12 04:15:00;;;;;;;3.40;2.80;;;;;;;25.23;60.63;98312.22;6999751;28;20203;-84
2023/07/12 04:18:22;;;;;;;5.13;3.07;;;;;;;25.04;61.11;98307.97;6999176;28;20255;-89
2023/07/12 04:21:44;;;;;;;3.40;3.10;;;;;;;24.99;61.53;98319.94;6998419;28;20289;-85
2023/07/12 04:25:08;;;;;;;3.60;3.10;;;;;;;25.04;61.38;98313.50;7000533;28;20272;-85
2023/07/12 04:28:32;;;;;;;6.03;3.53;;;;;;;25.21;61.15;98336.56;6996556;28;20640;-85
2023/07/12 04:31:53;;;;;;;4.83;3.20;;;;;;;25.35;59.97;98337.34;6999713;28;20212;-86
2023/07/12 04:35:15;;;;;;;6.60;3.13;;;;;;;25.46;59.94;98332.41;6995383;28;20296;-84
2023/07/12 04:38:37;;;;;;;5.70;3.00;;;;;;;25.48;60.25;98330.97;6999995;28;20221;-84
2023/07/12 04:41:58;;;;;;;4.73;3.13;;;;;;;24.74;61.33;98327.94;7004560;28;20194;-84
2023/07/12 04:45:21;;;;;;;4.80;3.20;;;;;;;25.69;60.11;98334.06;7000782;28;20340;-86
2023/07/12 04:48:43;;;;;;;4.93;3.50;;;;;;;25.71;59.38;98324.31;6999829;28;20725;-84
2023/07/12 04:52:05;;;;;;;3.60;3.07;;;;;;;26.09;59.17;98295.19;7001025;28;20610;-85
2023/07/12 04:55:28;;;;;;;4.77;3.10;;;;;;;26.49;54.67;98313.41;7000383;28;20677;-86
2023/07/12 04:58:49;;;;;;;5.93;3.53;;;;;;;26.81;55.74;98317.78;7000045;28;20249;-85
2023/07/12 05:02:12;;;;;;;4.90;3.47;;;;;;;26.29;59.41;98304.84;7000727;28;20211;-86
2023/07/12 05:05:34;;;;;;;4.20;3.20;;;;;;;26.65;59.17;98322.13;7001058;28;20251;-85
2023/07/12 05:08:55;;;;;;;5.97;3.37;;;;;;;26.50;58.64;98306.75;6996890;28;20371;-84
2023/07/12 05:12:17;;;;;;;5.40;3.23;;;;;;;26.58;58.47;98338.34;6997653;28;20267;-84
2023/07/12 05:15:38;;;;;;;5.90;3.40;;;;;;;25.85;59.45;98269.84;7001089;28;20206;-83
2023/07/12 05:19:01;;;;;;;4.87;3.30;;;;;;;26.49;58.95;98354.88;7000012;28;20229;-84
2023/07/12 05:22:23;;;;;;;8.83;3.37;;;;;;;26.18;59.83;98333.94;6997744;28;20307;-84
2023/07/12 05:25:48;;;;;;;4.40;3.50;;;;;;;25.84;59.75;98356.56;7016164;28;20236;-84
2023/07/12 05:29:12;;;;;;;6.73;3.80;;;;;;;26.33;59.64;98339.03;7010699;28;20275;-83
2023/07/12 05:32:33;;;;;;;5.90;3.57;;;;;;;26.85;58.56;98354.72;6996646;28;20201;-86
2023/07/12 05:35:56;;;;;;;7.07;3.47;;;;;;;27.09;57.44;98358.72;6996961;28;20202;-85
2023/07/12 05:39:18;;;;;;;7.73;3.83;;;;;;;26.63;57.52;98339.03;6993335;28;20217;-84
2023/07/12 05:42:41;;;;;;;5.50;3.47;;;;;;;26.50;59.42;98369.53;6997714;28;20306;-87
2023/07/12 05:46:03;;;;;;;5.13;3.63;;;;;;;26.51;60.53;98368.41;6995708;28;20344;-84
2023/07/12 05:49:25;;;;;;;6.73;3.83;;;;;;;25.92;60.90;98361.41;6994552;28;20700;-84
2023/07/12 05:52:48;;;;;;;5.50;3.70;;;;;;;26.53;59.41;98355.88;6998369;28;20203;-84
2023/07/12 05:56:09;;;;;;;7.87;4.30;;;;;;;26.45;59.40;98319.91;6997303;28;20229;-84
2023/07/12 05:59:31;;;;;;;6.63;3.80;;;;;;;27.08;58.44;98339.66;6998370;28;20368;-87
2023/07/12 06:02:52;;;;;;;5.80;3.77;;;;;;;27.52;57.40;98343.00;6996257;28;20257;-86
2023/07/12 06:06:14;;;;;;;6.03;3.80;;;;;;;26.93;58.46;98335.38;6996274;28;20237;-86
2023/07/12 06:09:37;;;;;;;5.00;3.67;;;;;;;26.34;59.80;98333.19;6997093;28;20252;-85
2023/07/12 06:13:00;;;;;;;9.60;4.23;;;;;;;27.46;55.71;98346.22;6997662;28;20199;-84
2023/07/12 06:16:22;;;;;;;6.47;4.43;;;;;;;27.66;55.81;98349.16;6998305;28;20199;-83
2023/07/12 06:19:44;;;;;;;6.50;4.10;;;;;;;27.76;53.81;98304.50;7005520;28;20291;-86
2023/07/12 06:23:06;;;;;;;6.67;3.93;;;;;;;27.56;53.74;98269.19;7004464;28;20583;-85
2023/07/12 06:26:29;;;;;;;8.73;3.90;;;;;;;28.79;52.43;98361.34;7002841;28;20202;-82
2023/07/12 06:29:50;;;;;;;6.87;4.23;;;;;;;27.04;54.44;98267.53;7004342;28;20237;-84
2023/07/12 06:33:12;;;;;;;5.47;4.47;;;;;;;28.36;51.35;98357.88;7003284;28;20319;-83
2023/07/12 06:36:34;;;;;;;8.00;4.87;;;;;;;28.48;51.69;98352.50;7000198;28;20199;-83
2023/07/12 06:39:55;;;;;;;8.57;4.10;;;;;;;28.65;51.75;98369.09;7002261;28;20223;-83
2023/07/12 06:43:18;;;;;;;8.90;3.90;;;;;;;29.79;47.47;98340.78;6987978;28;20211;-83
2023/07/12 06:46:40;;;;;;;9.03;4.20;;;;;;;30.38;46.85;98364.41;6991324;28;20886;-83
2023/07/12 06:50:01;;;;;;;6.23;3.40;;;;;;;29.36;48.18;98372.81;6987120;28;20589;-83
2023/07/12 06:53:23;;;;;;;7.30;4.00;;;;;;;29.87;48.18;98362.13;6996544;28;20291;-83
2023/07/12 06:56:46;;;;;;;6.57;3.57;;;;;;;28.96;46.63;98305.75;6986533;28;20238;-83
2023/07/12 07:00:11;;;;;;;6.27;3.80;;;;;;;30.58;45.94;98388.59;7001718;28;20286;-82
2023/07/12 07:03:32;;;;;;;7.40;3.83;;;;;;;30.35;45.74;98389.31;6988913;28;20346;-83
2023/07/12 07:06:54;;;;;;;6.27;3.60;;;;;;;30.92;45.39;98379.03;7002566;28;20680;-83
2023/07/12 07:10:15;;;;;;;4.70;3.77;;;;;;;31.25;45.16;98390.91;7003245;28;20774;-83
2023/07/12 07:13:37;;;;;;;5.63;3.70;;;;;;;30.95;42.57;98389.50;7004225;28;20213;-83
2023/07/12 07:17:00;;;;;;;6.30;3.43;;;;;;;31.62;42.32;98395.25;7002905;28;20233;-83
2023/07/12 07:20:22;;;;;;;6.73;4.03;;;;;;;30.86;44.94;98406.31;7003075;28;20292;-83
2023/07/12 07:23:43;;;;;;;9.53;4.30;;;;;;;30.01;45.14;98390.44;7004303;28;20238;-83
2023/07/12 07:27:06;;;;;;;5.20;3.90;;;;;;;29.58;46.89;98387.22;7009050;28;20256;-83
2023/07/12 07:30:29;;;;;;;6.07;4.03;;;;;;;29.90;46.81;98386.47;7017883;28;20309;-81
2023/07/12 07:33:52;;;;;;;8.73;4.00;;;;;;;30.45;45.30;98406.41;6992910;28;20279;-82
2023/07/12 07:37:16;;;;;;;5.57;3.63;;;;;;;30.24;44.68;98410.41;6989225;28;20255;-84
2023/07/12 07:40:40;;;;;;;5.33;3.97;;;;;;;30.76;44.46;98414.28;6999988;28;20243;-86
2023/07/12 07:44:02;;;;;;;6.17;3.87;;;;;;;30.50;45.86;98414.56;6999724;28;20762;-84
2023/07/12 07:47:24;;;;;;;6.63;4.13;;;;;;;31.12;43.67;98422.66;6998969;28;20234;-84
2023/07/12 07:50:47;;;;;;;10.07;3.93;;;;;;;29.97;44.10;98299.72;7000584;28;20202;-81
2023/07/12 07:54:09;;;;;;;9.10;5.13;;;;;;;30.96;43.61;98421.75;6999996;28;20351;-83
2023/07/12 07:57:30;;;;;;;12.70;7.40;;;;;;;31.05;43.59;98386.22;6999399;28;20305;-81
2023/07/12 08:00:52;;;;;;;9.10;4.17;;;;;;;31.62;41.99;98417.56;7001288;28;20259;-81
2023/07/12 08:04:14;;;;;;;6.03;3.67;;;;;;;31.72;42.68;98414.31;6999255;28;20208;-81
2023/07/12 08:07:41;;;;;;;6.13;3.87;;;;;;;32.20;40.46;98406.59;6999297;28;20673;-81
2023/07/12 08:11:05;;;;;;;4.77;4.10;;;;;;;31.77;41.01;98414.88;6970180;28;20223;-80
2023/07/12 08:14:27;;;;;;;6.73;3.50;;;;;;;32.47;39.82;98413.34;6981956;28;20328;-84
2023/07/12 08:17:48;;;;;;;5.30;3.27;;;;;;;32.89;37.87;98409.75;6999279;28;20293;-81
2023/07/12 08:21:13;;;;;;;5.30;3.40;;;;;;;32.79;36.53;98403.91;6999565;28;20244;-82
2023/07/12 08:24:35;;;;;;;3.67;3.37;;;;;;;33.50;35.69;98426.88;6992271;28;20270;-82
2023/07/12 08:27:57;;;;;;;4.33;2.73;;;;;;;33.31;34.91;98424.81;6988770;28;20313;-81
2023/07/12 08:31:19;;;;;;;3.63;2.93;;;;;;;33.17;36.27;98432.81;6972739;28;20293;-81
2023/07/12 08:34:40;;;;;;;7.23;3.20;;;;;;;32.96;34.58;98407.13;6998822;28;20239;-81
2023/07/12 08:38:02;;;;;;;5.83;2.80;;;;;;;32.52;36.16;98441.84;6999312;28;20218;-81
2023/07/12 08:41:26;;;;;;;4.10;3.10;;;;;;;32.89;35.32;98440.47;6994338;28;20276;-81
2023/07/12 08:44:47;;;;;;;3.43;2.83;;;;;;;32.98;35.79;98427.16;6968822;28;20270;-82
2023/07/12 08:48:19;;;;;;;6.53;3.17;;;;;;;32.65;36.51;98443.38;6971233;28;20374;-81
2023/07/12 08:51:42;;;;;;;6.17;3.20;;;;;;;33.79;34.63;98443.16;6974158;28;20204;-81
2023/07/12 08:55:06;;;;;;;5.03;3.50;;;;;;;32.85;36.11;98441.56;6971385;28;20205;-81
2023/07/12 08:58:33;;;;;;;5.10;3.30;;;;;;;33.23;35.45;98422.16;6971043;28;20333;-81
2023/07/12 09:01:58;;;;;;;5.90;3.17;;;;;;;33.99;34.90;98442.81;6972391;28;20199;-81
2023/07/12 09:05:22;;;;;;;5.60;3.47;;;;;;;34.03;35.09;98440.91;6969800;28;20211;-81
2023/07/12 09:08:45;;;;;;;6.07;3.37;;;;;;;33.65;34.68;98393.28;6984886;28;20244;-81
2023/07/12 09:12:23;;;;;;;4.43;3.23;;;;;;;33.57;35.23;98427.03;6995381;28;20201;-81
2023/07/12 09:15:48;;;;;;;4.57;3.30;;;;;;;33.53;35.39;98432.53;6985879;28;20208;-81
2023/07/12 09:19:15;;;;;;;4.87;3.70;;;;;;;33.01;36.19;98406.88;6999304;28;20324;-81
2023/07/12 09:22:38;;;;;;;4.47;3.20;;;;;;;32.68;36.57;98409.19;6997780;28;20286;-80
2023/07/12 09:25:59;;;;;;;9.07;3.47;;;;;;;33.03;36.22;98415.72;6990833;28;20607;-80
2023/07/12 09:29:25;;;;;;;3.80;3.40;;;;;;;33.58;34.65;98421.09;6996943;28;20603;-81
2023/07/12 09:32:49;;;;;;;5.10;3.30;;;;;;;32.65;36.05;98420.22;6997673;28;20247;-82
2023/07/12 09:36:16;;;;;;;4.53;3.20;;;;;;;32.29;36.09;98412.88;6996779;28;20568;-81
2023/07/12 09:39:38;;;;;;;8.60;3.50;;;;;;;32.89;35.73;98417.34;6997792;28;20224;-82
2023/07/12 09:43:04;;;;;;;5.70;3.57;;;;;;;32.48;36.69;98401.03;6998460;28;20196;-84
2023/07/12 09:46:34;;;;;;;6.23;3.23;;;;;;;32.64;35.47;98418.59;7002235;28;20189;-84
2023/07/12 09:50:00;;;;;;;4.20;3.30;;;;;;;32.64;35.30;98408.25;6999843;28;20288;-86
2023/07/12 09:53:29;;;;;;;5.03;3.23;;;;;;;33.26;33.84;98348.81;6996611;28;20289;-83
2023/07/12 09:56:53;;;;;;;4.70;3.03;;;;;;;34.74;32.73;98404.78;6998849;28;20266;-84
2023/07/12 10:00:26;;;;;;;4.27;2.87;;;;;;;34.95;31.83;98396.00;6973949;28;20274;-82
2023/07/12 10:03:52;;;;;;;3.77;3.37;;;;;;;34.59;33.43;98394.50;6974931;28;20276;-84
2023/07/12 10:07:28;;;;;;;3.93;3.23;;;;;;;34.32;31.81;98378.75;6996257;28;20209;-84
2023/07/12 10:10:53;;;;;;;5.27;3.57;;;;;;;34.59;31.84;98385.28;6980824;28;20206;-83
2023/07/12 10:14:17;;;;;;;4.57;3.10;;;;;;;33.88;32.55;98377.44;6978414;28;20554;-83
2023/07/12 10:17:40;;;;;;;5.47;3.20;;;;;;;34.36;32.04;98385.25;6975234;28;20360;-84
2023/07/12 10:21:02;;;;;;;8.13;3.77;;;;;;;34.28;32.77;98337.88;7003452;28;20205;-83
2023/07/12 10:24:34;;;;;;;4.07;3.47;;;;;;;34.48;31.10;98382.28;7001477;28;20296;-83
2023/07/12 10:27:59;;;;;;;4.20;3.20;;;;;;;34.55;32.37;98390.00;6988725;28;20283;-83
2023/07/12 10:31:42;;;;;;;3.40;3.10;;;;;;;33.66;32.10;98335.38;7000091;28;20206;-83
2023/07/12 10:35:15;;;;;;;5.90;3.30;;;;;;;33.12;32.04;98380.00;7000356;28;20342;-85
2023/07/12 10:38:37;;;;;;;3.53;3.23;;;;;;;33.61;32.00;98392.38;6998563;28;20226;-84
2023/07/12 10:42:03;;;;;;;5.33;3.57;;;;;;;34.23;30.71;98380.97;7000947;28;20250;-85
2023/07/12 10:45:27;;;;;;;6.93;3.80;;;;;;;34.04;30.82;98383.78;7001795;28;20595;-85
2023/07/12 10:48:50;;;;;;;6.43;3.57;;;;;;;33.83;30.95;98362.94;7000787;28;20761;-86
2023/07/12 10:52:20;;;;;;;4.20;3.30;;;;;;;34.60;30.03;98372.91;7001289;28;20293;-84
2023/07/12 10:55:47;;;;;;;4.90;3.80;;;;;;;33.79;30.87;98295.69;7001516;28;20331;-86
2023/07/12 10:59:42;;;;;;;3.97;3.23;;;;;;;34.95;30.96;98384.78;7002775;28;20941;-83
2023/07/12 11:03:17;;;;;;;5.10;3.50;;;;;;;34.87;30.38;98369.00;7000704;28;20201;-85
2023/07/12 11:06:54;;;;;;;5.53;3.40;;;;;;;35.59;28.72;98368.59;6995965;28;20214;-84
2023/07/12 11:10:23;;;;;;;6.30;3.20;;;;;;;35.41;29.47;98392.75;6973170;28;20234;-82
2023/07/12 11:13:46;;;;;;;3.30;2.97;;;;;;;35.93;28.65;98369.47;6994266;28;20220;-83
2023/07/12 11:17:15;;;;;;;3.63;3.27;;;;;;;35.59;29.49;98367.78;7001372;28;20731;-83
2023/07/12 11:20:59;;;;;;;5.10;3.27;;;;;;;36.21;29.37;98364.25;7002581;28;20197;-83
2023/07/12 11:24:22;;;;;;;4.33;3.00;;;;;;;35.41;29.51;98361.09;7019313;28;20224;-85
2023/07/12 11:27:58;;;;;;;3.90;3.20;;;;;;;35.92;28.79;98342.59;7006257;28;20581;-82
2023/07/12 11:31:29;;;;;;;4.13;3.57;;;;;;;36.15;28.00;98360.13;6974407;28;20727;-83
2023/07/12 11:34:54;;;;;;;6.70;3.00;;;;;;;35.70;29.12;98351.94;6974493;28;20205;-83
2023/07/12 11:38:18;;;;;;;5.40;3.37;;;;;;;36.45;27.16;98363.72;6974914;28;20242;-83
2023/07/12 11:41:42;;;;;;;4.70;3.30;;;;;;;36.23;27.25;98361.84;6993494;28;20284;-83
2023/07/12 11:45:05;;;;;;;6.33;3.20;;;;;;;36.35;27.06;98373.66;7001099;28;20209;-83
2023/07/12 11:48:31;;;;;;;8.53;3.80;;;;;;;35.83;28.10;98375.78;6999146;28;20383;-83
2023/07/12 11:51:56;;;;;;;5.57;3.30;;;;;;;36.04;27.65;98360.03;6999672;28;20205;-82
2023/07/12 11:55:19;;;;;;;4.53;3.50;;;;;;;35.90;27.33;98351.41;6999572;28;20285;-83
2023/07/12 11:58:44;;;;;;;4.33;3.30;;;;;;;35.43;27.93;98241.75;7002606;28;20245;-82
2023/07/12 12:02:12;;;;;;;4.20;3.33;;;;;;;35.72;27.53;98321.53;7000677;28;20247;-87
2023/07/12 12:05:35;;;;;;;11.83;3.57;;;;;;;35.54;27.70;98352.09;6999713;28;20224;-83
2023/07/12 12:08:58;;;;;;;8.23;3.77;;;;;;;35.23;27.94;98334.78;6998289;28;20282;-83
2023/07/12 12:12:22;;;;;;;7.23;4.07;;;;;;;35.56;28.23;98324.44;6999814;28;20247;-84
2023/07/12 12:15:45;;;;;;;6.37;3.43;;;;;;;35.22;28.18;98322.75;6999211;28;20650;-86
2023/07/12 12:19:26;;;;;;;12.63;4.20;;;;;;;34.08;29.52;98294.28;6999185;28;20224;-81
2023/07/12 12:22:51;;;;;;;4.13;3.20;;;;;;;34.17;29.77;98320.88;6887394;28;20208;-82
2023/07/12 12:26:19;;;;;;;5.20;3.03;;;;;;;34.88;28.99;98295.78;6880090;28;20260;-81
2023/07/12 12:29:42;;;;;;;5.30;3.27;;;;;;;34.64;30.25;98276.56;6876978;28;20248;-82
2023/07/12 12:33:05;;;;;;;4.53;3.37;;;;;;;35.04;30.15;98323.66;6885870;28;20204;-83
2023/07/12 12:36:29;;;;;;;4.57;3.03;;;;;;;36.05;28.71;98327.94;6894435;28;20270;-83
2023/07/12 12:39:58;;;;;;;5.27;3.50;;;;;;;34.63;29.58;98283.34;6888015;28;20265;-82
2023/07/12 12:43:23;;;;;;;5.73;3.33;;;;;;;35.10;30.03;98313.75;6886311;28;20200;-82
2023/07/12 12:46:46;;;;;;;6.20;3.37;;;;;;;35.35;29.36;98306.53;6886895;28;20681;-82
2023/07/12 12:50:17;;;;;;;4.20;3.50;;;;;;;34.94;29.16;98308.28;6886521;28;20294;-81
2023/07/12 12:53:39;;;;;;;4.80;3.30;;;;;;;34.30;30.16;98308.34;6887280;28;20304;-83
2023/07/12 12:57:00;;;;;;;5.13;3.40;;;;;;;34.97;29.43;98296.31;6886015;28;20238;-82
2023/07/12 13:00:26;;;;;;;4.93;3.70;;;;;;;34.77;29.76;98308.00;6972683;28;20675;-83
2023/07/12 13:03:47;;;;;;;4.63;3.23;;;;;;;35.30;28.82;98276.81;6998554;28;20197;-82
2023/07/12 13:07:20;;;;;;;4.90;3.37;;;;;;;35.27;30.24;98314.06;6996650;28;20232;-82
2023/07/12 13:10:42;;;;;;;3.83;3.47;;;;;;;34.93;30.27;98301.06;7000167;28;20239;-81
2023/07/12 13:14:03;;;;;;;4.03;3.30;;;;;;;34.70;31.04;98285.44;7005914;28;20206;-82
2023/07/12 13:17:27;;;;;;;4.97;3.67;;;;;;;35.22;30.89;98285.47;7005722;28;20257;-82
2023/07/12 13:20:49;;;;;;;5.73;3.40;;;;;;;34.57;30.57;98287.63;6999423;28;20745;-81
2023/07/12 13:24:11;;;;;;;4.30;3.50;;;;;;;35.51;30.12;98291.16;6997241;28;20289;-81
2023/07/12 13:27:35;;;;;;;4.77;3.70;;;;;;;35.17;30.80;98289.44;6997988;28;20225;-81
2023/07/12 13:30:56;;;;;;;4.50;3.47;;;;;;;33.37;32.44;98291.97;6998360;28;20575;-82
2023/07/12 13:34:19;;;;;;;8.40;4.00;;;;;;;33.81;32.25;98295.34;6983409;28;20339;-83
2023/07/12 13:37:42;;;;;;;5.33;3.50;;;;;;;34.12;31.56;98255.97;6982918;28;20626;-83
2023/07/12 13:41:03;;;;;;;4.43;3.70;;;;;;;34.02;30.47;98144.69;6974447;28;20202;-82
2023/07/12 13:44:26;;;;;;;5.47;3.57;;;;;;;34.76;30.59;98292.38;6973327;28;20198;-82
2023/07/12 13:47:47;;;;;;;4.57;3.50;;;;;;;34.66;30.42;98248.97;6972932;28;20233;-81
2023/07/12 13:51:18;;;;;;;6.83;3.30;;;;;;;35.16;30.56;98295.41;6973737;28;20222;-81
2023/07/12 13:54:40;;;;;;;4.17;3.77;;;;;;;34.00;31.55;98295.31;6974163;28;20226;-82
2023/07/12 13:58:01;;;;;;;6.07;3.33;;;;;;;34.47;31.03;98307.03;6973236;28;20588;-81
2023/07/12 14:01:25;;;;;;;3.70;3.30;;;;;;;33.07;33.19;98309.63;6974193;28;20255;-82
2023/07/12 14:04:47;;;;;;;4.53;3.70;;;;;;;34.20;32.37;98310.91;6994613;28;20214;-82
2023/07/12 14:08:11;;;;;;;5.40;3.67;;;;;;;33.71;32.48;98299.50;7001225;28;20229;-81
2023/07/12 14:11:34;;;;;;;5.17;3.27;;;;;;;33.95;32.21;98315.22;7000953;28;20233;-81
2023/07/12 14:14:56;;;;;;;6.07;3.43;;;;;;;34.12;31.25;98320.34;7001071;28;20294;-81
2023/07/12 14:18:17;;;;;;;7.90;3.77;;;;;;;34.52;30.76;98315.94;6987263;28;20257;-81
2023/07/12 14:21:39;;;;;;;6.20;3.63;;;;;;;33.26;32.33;98243.38;6973479;28;20297;-81
2023/07/12 14:25:02;;;;;;;3.33;2.93;;;;;;;33.60;32.61;98297.69;6973559;28;20852;-82
2023/07/12 14:28:23;;;;;;;3.77;3.10;;;;;;;33.64;32.47;98326.50;6973688;28;20313;-81
2023/07/12 14:31:45;;;;;;;3.90;3.50;;;;;;;33.39;32.87;98331.59;6975076;28;20817;-80
2023/07/12 14:35:08;;;;;;;5.80;3.30;;;;;;;32.97;32.94;98227.16;6974447;28;20207;-80
2023/07/12 14:38:30;;;;;;;4.83;3.20;;;;;;;34.08;31.89;98339.88;6972604;28;20221;-80
2023/07/12 14:41:53;;;;;;;5.37;3.30;;;;;;;34.42;30.99;98338.16;6971708;28;20300;-81
2023/07/12 14:45:18;;;;;;;5.10;3.17;;;;;;;34.09;30.99;98270.72;6972468;28;20226;-82
2023/07/12 14:48:39;;;;;;;4.47;2.90;;;;;;;34.19;31.61;98346.47;6972415;28;20763;-81
2023/07/12 14:52:01;;;;;;;3.47;2.90;;;;;;;33.64;31.68;98334.91;7000828;28;20366;-81
2023/07/12 14:55:22;;;;;;;5.20;3.27;;;;;;;33.85;31.18;98318.63;7002124;28;20245;-81
2023/07/12 14:58:45;;;;;;;4.40;2.97;;;;;;;34.32;30.46;98338.78;7001438;28;20312;-81
2023/07/12 15:02:16;;;;;;;4.43;3.47;;;;;;;34.25;31.18;98347.81;6999283;28;20564;-80
2023/07/12 15:05:37;;;;;;;4.17;3.20;;;;;;;33.89;31.58;98330.69;6997371;28;20300;-82
2023/07/12 15:08:59;;;;;;;3.80;2.93;;;;;;;34.00;30.69;98328.91;6984092;28;20234;-83
2023/07/12 15:12:35;;;;;;;4.23;3.10;;;;;;;33.30;31.47;98285.44;7002658;28;20221;-83
2023/07/12 15:15:57;;;;;;;7.20;3.10;;;;;;;33.39;31.46;98351.16;7002024;28;20255;-82
2023/07/12 15:19:19;;;;;;;5.67;2.77;;;;;;;33.63;31.24;98353.69;7002224;28;20225;-84
2023/07/12 15:22:41;;;;;;;5.33;3.13;;;;;;;34.07;31.00;98337.47;7002165;28;20254;-81
2023/07/12 15:26:02;;;;;;;2.73;2.50;;;;;;;33.62;30.75;98346.47;7005828;28;20266;-82
2023/07/12 15:29:23;;;;;;;4.33;2.80;;;;;;;33.79;30.47;98360.03;7005327;28;20220;-82
2023/07/12 15:32:48;;;;;;;2.93;2.50;;;;;;;33.78;30.91;98355.63;7002214;28;20209;-84
2023/07/12 15:36:11;;;;;;;2.97;2.63;;;;;;;33.14;30.95;98346.91;6999704;28;20210;-84
2023/07/12 15:39:33;;;;;;;3.40;3.10;;;;;;;32.78;31.60;98341.63;7000699;28;20237;-82
2023/07/12 15:42:54;;;;;;;3.50;2.90;;;;;;;33.22;31.64;98357.09;7000148;28;20206;-83
2023/07/12 15:46:17;;;;;;;3.60;2.83;;;;;;;32.46;31.83;98336.38;7000711;28;20217;-83
2023/07/12 15:49:40;;;;;;;3.00;2.70;;;;;;;32.86;31.83;98354.63;6999887;28;20324;-82
2023/07/12 15:53:02;;;;;;;4.03;3.10;;;;;;;33.61;30.98;98363.63;6998957;28;20795;-82
2023/07/12 15:56:26;;;;;;;5.33;2.93;;;;;;;33.31;31.33;98366.13;6999521;28;20213;-82
2023/07/12 15:59:47;;;;;;;3.43;2.70;;;;;;;33.14;31.96;98355.28;6999198;28;20627;-83